sensor_id;sensor_type;location;lat;lon;timestamp;noise_LAeq;noise_LA_min;noise_LA_max;noise_LA01;noise_LA95
42701;Laerm;28316;49.504;8.526;2023-05-10T00:00:09;60.27;59.62;60.76;;
42701;Laerm;28316;49.504;8.526;2023-05-10T00:02:34;60.54;60.01;61.17;;
42701;Laerm;28316;49.504;8.526;2023-05-10T00:05:01;60.89;60.35;61.80;;
42701;Laerm;28316;49.504;8.526;2023-05-10T00:07:26;61.65;58.93;62.63;;
42701;Laerm;28316;49.504;8.526;2023-05-10T00:09:52;61.20;60.54;62.11;;
42701;Laerm;28316;49.504;8.526;2023-05-10T00:12:18;61.11;59.49;61.75;;
42701;Laerm;28316;49.504;8.526;2023-05-10T00:14:44;60.92;60.47;61.33;;
42701;Laerm;28316;49.504;8.526;2023-05-10T00:17:10;60.34;59.52;61.56;;
42701;Laerm;28316;49.504;8.526;2023-05-10T00:19:36;59.96;59.24;61.09;;
42701;Laerm;28316;49.504;8.526;2023-05-10T00:22:01;59.47;58.87;60.41;;
42701;Laerm;28316;49.504;8.526;2023-05-10T00:24:27;58.53;57.94;59.44;;
42701;Laerm;28316;49.504;8.526;2023-05-10T00:26:53;59.11;54.16;61.37;;
42701;Laerm;28316;49.504;8.526;2023-05-10T00:29:19;56.55;54.29;58.38;;
42701;Laerm;28316;49.504;8.526;2023-05-10T00:31:45;56.78;56.26;57.46;;
42701;Laerm;28316;49.504;8.526;2023-05-10T00:34:10;57.64;54.79;59.31;;
42701;Laerm;28316;49.504;8.526;2023-05-10T00:36:36;58.01;57.38;58.64;;
42701;Laerm;28316;49.504;8.526;2023-05-10T00:39:02;58.34;57.77;59.07;;
42701;Laerm;28316;49.504;8.526;2023-05-10T00:41:29;58.74;58.12;59.57;;
42701;Laerm;28316;49.504;8.526;2023-05-10T00:43:58;60.13;58.82;61.42;;
42701;Laerm;28316;49.504;8.526;2023-05-10T00:46:25;59.48;58.13;60.85;;
42701;Laerm;28316;49.504;8.526;2023-05-10T00:48:51;59.02;58.15;59.61;;
42701;Laerm;28316;49.504;8.526;2023-05-10T00:51:18;59.19;58.15;60.91;;
42701;Laerm;28316;49.504;8.526;2023-05-10T00:53:45;59.39;58.97;59.81;;
42701;Laerm;28316;49.504;8.526;2023-05-10T00:56:12;60.41;58.97;61.23;;
42701;Laerm;28316;49.504;8.526;2023-05-10T00:58:41;60.49;59.68;61.12;;
42701;Laerm;28316;49.504;8.526;2023-05-10T01:01:08;60.47;59.60;61.36;;
42701;Laerm;28316;49.504;8.526;2023-05-10T01:03:35;61.65;60.16;63.33;;
42701;Laerm;28316;49.504;8.526;2023-05-10T01:06:01;60.88;60.28;61.38;;
42701;Laerm;28316;49.504;8.526;2023-05-10T01:12:49;60.96;60.33;61.73;;
42701;Laerm;28316;49.504;8.526;2023-05-10T01:15:16;60.62;60.23;60.99;;
42701;Laerm;28316;49.504;8.526;2023-05-10T01:17:44;61.93;60.27;66.07;;
42701;Laerm;28316;49.504;8.526;2023-05-10T01:20:12;61.90;60.85;63.39;;
42701;Laerm;28316;49.504;8.526;2023-05-10T01:23:24;60.53;60.06;61.39;;
42701;Laerm;28316;49.504;8.526;2023-05-10T01:32:32;61.52;61.00;61.99;;
42701;Laerm;28316;49.504;8.526;2023-05-10T01:35:10;63.70;61.41;65.46;;
42701;Laerm;28316;49.504;8.526;2023-05-10T01:37:46;64.06;63.50;64.99;;
42701;Laerm;28316;49.504;8.526;2023-05-10T01:40:25;63.37;62.65;64.01;;
42701;Laerm;28316;49.504;8.526;2023-05-10T01:43:00;62.79;62.31;63.32;;
42701;Laerm;28316;49.504;8.526;2023-05-10T01:45:51;62.28;61.18;63.57;;
42701;Laerm;28316;49.504;8.526;2023-05-10T01:48:20;63.98;63.15;64.50;;
42701;Laerm;28316;49.504;8.526;2023-05-10T01:50:46;63.74;62.85;64.37;;
42701;Laerm;28316;49.504;8.526;2023-05-10T01:53:18;63.42;62.17;64.33;;
42701;Laerm;28316;49.504;8.526;2023-05-10T01:55:50;64.70;63.79;65.19;;
42701;Laerm;28316;49.504;8.526;2023-05-10T01:58:30;65.14;64.62;65.61;;
42701;Laerm;28316;49.504;8.526;2023-05-10T02:01:00;65.24;64.61;65.73;;
42701;Laerm;28316;49.504;8.526;2023-05-10T02:03:27;64.05;62.99;65.12;;
42701;Laerm;28316;49.504;8.526;2023-05-10T02:05:54;64.40;63.57;65.00;;
42701;Laerm;28316;49.504;8.526;2023-05-10T02:08:22;63.40;62.38;64.36;;
42701;Laerm;28316;49.504;8.526;2023-05-10T02:10:52;62.65;62.22;63.05;;
42701;Laerm;28316;49.504;8.526;2023-05-10T02:13:18;62.72;62.34;63.07;;
42701;Laerm;28316;49.504;8.526;2023-05-10T02:15:48;61.94;61.23;62.94;;
42701;Laerm;28316;49.504;8.526;2023-05-10T02:18:14;61.24;60.48;61.85;;
42701;Laerm;28316;49.504;8.526;2023-05-10T02:20:43;60.84;60.02;61.31;;
42701;Laerm;28316;49.504;8.526;2023-05-10T02:23:11;59.93;59.14;60.61;;
42701;Laerm;28316;49.504;8.526;2023-05-10T02:25:37;60.33;59.38;60.93;;
42701;Laerm;28316;49.504;8.526;2023-05-10T02:28:06;59.75;58.49;60.64;;
42701;Laerm;28316;49.504;8.526;2023-05-10T02:30:34;57.70;56.51;59.06;;
42701;Laerm;28316;49.504;8.526;2023-05-10T02:33:01;56.64;56.14;57.27;;
42701;Laerm;28316;49.504;8.526;2023-05-10T02:35:28;56.62;56.23;57.01;;
42701;Laerm;28316;49.504;8.526;2023-05-10T02:37:56;56.65;56.25;57.01;;
42701;Laerm;28316;49.504;8.526;2023-05-10T02:40:24;56.57;56.10;56.97;;
42701;Laerm;28316;49.504;8.526;2023-05-10T02:42:53;56.34;55.86;56.74;;
42701;Laerm;28316;49.504;8.526;2023-05-10T02:45:24;56.41;55.95;56.79;;
42701;Laerm;28316;49.504;8.526;2023-05-10T02:47:52;56.37;55.92;56.81;;
42701;Laerm;28316;49.504;8.526;2023-05-10T02:50:18;56.53;56.13;56.86;;
42701;Laerm;28316;49.504;8.526;2023-05-10T02:52:50;56.56;56.09;57.07;;
42701;Laerm;28316;49.504;8.526;2023-05-10T02:55:24;56.74;56.29;57.15;;
42701;Laerm;28316;49.504;8.526;2023-05-10T02:58:00;56.91;56.43;57.40;;
42701;Laerm;28316;49.504;8.526;2023-05-10T03:00:26;56.67;56.23;57.21;;
42701;Laerm;28316;49.504;8.526;2023-05-10T03:02:53;56.53;55.58;57.36;;
42701;Laerm;28316;49.504;8.526;2023-05-10T03:05:19;52.68;49.78;56.20;;
42701;Laerm;28316;49.504;8.526;2023-05-10T03:07:46;50.56;49.56;51.34;;
42701;Laerm;28316;49.504;8.526;2023-05-10T03:10:12;49.00;47.99;50.92;;
42701;Laerm;28316;49.504;8.526;2023-05-10T03:13:05;50.02;47.80;51.49;;
42701;Laerm;28316;49.504;8.526;2023-05-10T03:18:32;46.80;43.81;48.16;;
42701;Laerm;28316;49.504;8.526;2023-05-10T03:21:04;45.23;42.29;46.80;;
42701;Laerm;28316;49.504;8.526;2023-05-10T03:23:43;45.18;41.46;47.06;;
42701;Laerm;28316;49.504;8.526;2023-05-10T03:26:17;46.98;42.47;47.91;;
42701;Laerm;28316;49.504;8.526;2023-05-10T03:28:47;44.83;41.22;47.54;;
42701;Laerm;28316;49.504;8.526;2023-05-10T03:31:14;46.27;42.71;47.72;;
42701;Laerm;28316;49.504;8.526;2023-05-10T03:33:51;45.75;42.29;46.82;;
42701;Laerm;28316;49.504;8.526;2023-05-10T03:36:18;41.85;40.63;44.62;;
42701;Laerm;28316;49.504;8.526;2023-05-10T03:38:44;41.46;40.33;42.41;;
42701;Laerm;28316;49.504;8.526;2023-05-10T03:41:09;41.41;40.23;42.35;;
42701;Laerm;28316;49.504;8.526;2023-05-10T03:43:35;41.28;39.99;42.29;;
42701;Laerm;28316;49.504;8.526;2023-05-10T03:46:03;40.93;39.57;42.03;;
42701;Laerm;28316;49.504;8.526;2023-05-10T03:48:29;40.61;39.08;41.68;;
42701;Laerm;28316;49.504;8.526;2023-05-10T03:50:55;40.28;38.67;41.53;;
42701;Laerm;28316;49.504;8.526;2023-05-10T03:53:21;40.27;38.95;41.46;;
42701;Laerm;28316;49.504;8.526;2023-05-10T03:55:48;40.05;38.21;41.30;;
42701;Laerm;28316;49.504;8.526;2023-05-10T03:58:14;39.55;36.91;41.14;;
42701;Laerm;28316;49.504;8.526;2023-05-10T04:00:40;39.49;37.52;40.80;;
42701;Laerm;28316;49.504;8.526;2023-05-10T04:03:11;39.30;37.32;40.89;;
42701;Laerm;28316;49.504;8.526;2023-05-10T04:05:37;38.88;36.20;40.43;;
42701;Laerm;28316;49.504;8.526;2023-05-10T04:08:04;38.37;32.35;40.33;;
42701;Laerm;28316;49.504;8.526;2023-05-10T04:10:30;38.27;34.31;40.03;;
42701;Laerm;28316;49.504;8.526;2023-05-10T04:12:55;38.26;32.93;40.03;;
42701;Laerm;28316;49.504;8.526;2023-05-10T04:15:21;38.21;31.68;40.13;;
42701;Laerm;28316;49.504;8.526;2023-05-10T04:17:48;38.06;31.68;40.13;;
42701;Laerm;28316;49.504;8.526;2023-05-10T04:20:13;37.97;32.00;39.81;;
42701;Laerm;28316;49.504;8.526;2023-05-10T04:22:39;37.93;32.35;39.81;;
42701;Laerm;28316;49.504;8.526;2023-05-10T04:25:06;37.93;29.92;40.03;;
42701;Laerm;28316;49.504;8.526;2023-05-10T04:27:32;37.79;26.91;39.92;;
42701;Laerm;28316;49.504;8.526;2023-05-10T04:29:58;37.61;30.89;39.58;;
42701;Laerm;28316;49.504;8.526;2023-05-10T04:32:24;37.42;29.92;39.81;;
42701;Laerm;28316;49.504;8.526;2023-05-10T04:34:50;37.27;26.91;39.70;;
42701;Laerm;28316;49.504;8.526;2023-05-10T04:37:19;37.17;28.67;39.70;;
42701;Laerm;28316;49.504;8.526;2023-05-10T04:39:46;37.07;28.67;39.58;;
42701;Laerm;28316;49.504;8.526;2023-05-10T04:42:12;36.99;26.91;39.58;;
42701;Laerm;28316;49.504;8.526;2023-05-10T04:44:40;36.90;23.90;39.58;;
42701;Laerm;28316;49.504;8.526;2023-05-10T04:47:06;36.76;26.91;39.46;;
42701;Laerm;28316;49.504;8.526;2023-05-10T04:49:31;36.65;23.90;39.58;;
42701;Laerm;28316;49.504;8.526;2023-05-10T04:51:57;36.62;26.91;39.57;;
42701;Laerm;28316;49.504;8.526;2023-05-10T04:54:23;36.58;26.91;39.58;;
42701;Laerm;28316;49.504;8.526;2023-05-10T04:56:49;36.51;26.91;39.46;;
42701;Laerm;28316;49.504;8.526;2023-05-10T04:59:15;36.48;26.91;39.46;;
42701;Laerm;28316;49.504;8.526;2023-05-10T05:01:41;36.49;28.67;39.46;;
42701;Laerm;28316;49.504;8.526;2023-05-10T05:04:06;36.48;28.67;39.34;;
42701;Laerm;28316;49.504;8.526;2023-05-10T05:06:32;36.48;26.91;39.58;;
42701;Laerm;28316;49.504;8.526;2023-05-10T05:08:58;36.46;28.67;39.21;;
42701;Laerm;28316;49.504;8.526;2023-05-10T05:11:24;36.47;23.90;39.46;;
42701;Laerm;28316;49.504;8.526;2023-05-10T05:13:51;36.47;26.91;39.58;;
42701;Laerm;28316;49.504;8.526;2023-05-10T05:16:17;36.43;26.91;39.46;;
42701;Laerm;28316;49.504;8.526;2023-05-10T05:18:42;36.45;23.90;39.46;;
42701;Laerm;28316;49.504;8.526;2023-05-10T05:21:19;36.44;23.90;39.34;;
42701;Laerm;28316;49.504;8.526;2023-05-10T05:23:45;36.44;23.90;40.03;;
42701;Laerm;28316;49.504;8.526;2023-05-10T05:26:11;36.49;26.91;39.81;;
42701;Laerm;28316;49.504;8.526;2023-05-10T05:28:38;36.49;23.90;39.81;;
42701;Laerm;28316;49.504;8.526;2023-05-10T05:31:05;36.42;23.90;39.58;;
42701;Laerm;28316;49.504;8.526;2023-05-10T05:33:31;36.35;23.90;39.08;;
42701;Laerm;28316;49.504;8.526;2023-05-10T05:35:57;36.21;26.91;39.34;;
42701;Laerm;28316;49.504;8.526;2023-05-10T05:38:25;36.10;23.90;39.21;;
42701;Laerm;28316;49.504;8.526;2023-05-10T05:40:51;36.04;23.90;39.08;;
42701;Laerm;28316;49.504;8.526;2023-05-10T05:43:17;36.04;26.91;39.34;;
42701;Laerm;28316;49.504;8.526;2023-05-10T05:45:42;36.01;26.91;39.08;;
42701;Laerm;28316;49.504;8.526;2023-05-10T05:48:08;36.01;26.91;39.08;;
42701;Laerm;28316;49.504;8.526;2023-05-10T05:50:34;36.06;5.00;39.34;;
42701;Laerm;28316;49.504;8.526;2023-05-10T05:53:00;36.02;26.91;39.34;;
42701;Laerm;28316;49.504;8.526;2023-05-10T05:55:35;36.03;23.90;39.21;;
42701;Laerm;28316;49.504;8.526;2023-05-10T05:58:16;36.00;23.90;38.95;;
42701;Laerm;28316;49.504;8.526;2023-05-10T06:00:45;35.99;28.67;38.95;;
42701;Laerm;28316;49.504;8.526;2023-05-10T06:03:11;36.03;26.91;39.46;;
42701;Laerm;28316;49.504;8.526;2023-05-10T06:05:44;36.02;28.67;39.08;;
42701;Laerm;28316;49.504;8.526;2023-05-10T06:08:35;35.99;28.67;38.95;;
42701;Laerm;28316;49.504;8.526;2023-05-10T06:11:10;36.05;28.67;39.46;;
42701;Laerm;28316;49.504;8.526;2023-05-10T06:13:39;36.06;26.91;40.08;;
42701;Laerm;28316;49.504;8.526;2023-05-10T06:19:13;36.22;26.91;39.34;;
42701;Laerm;28316;49.504;8.526;2023-05-10T06:21:42;36.43;28.67;39.34;;
42701;Laerm;28316;49.504;8.526;2023-05-10T06:24:30;36.86;32.35;40.43;;
42701;Laerm;28316;49.504;8.526;2023-05-10T06:27:00;37.02;33.44;40.43;;
42701;Laerm;28316;49.504;8.526;2023-05-10T06:29:26;37.07;32.93;39.92;;
42701;Laerm;28316;49.504;8.526;2023-05-10T06:31:56;37.08;32.93;39.70;;
42701;Laerm;28316;49.504;8.526;2023-05-10T06:34:44;37.15;32.35;39.81;;
42701;Laerm;28316;49.504;8.526;2023-05-10T06:37:14;37.16;32.93;40.03;;
42701;Laerm;28316;49.504;8.526;2023-05-10T06:40:17;37.15;32.93;40.03;;
42701;Laerm;28316;49.504;8.526;2023-05-10T06:42:57;37.18;33.90;40.03;;
42701;Laerm;28316;49.504;8.526;2023-05-10T06:53:03;37.44;33.90;40.03;;
42701;Laerm;28316;49.504;8.526;2023-05-10T06:55:29;37.44;34.69;40.03;;
42701;Laerm;28316;49.504;8.526;2023-05-10T06:57:55;37.44;33.90;39.81;;
42701;Laerm;28316;49.504;8.526;2023-05-10T07:00:21;37.49;33.90;40.03;;
42701;Laerm;28316;49.504;8.526;2023-05-10T07:02:46;37.58;33.44;40.03;;
42701;Laerm;28316;49.504;8.526;2023-05-10T07:05:13;37.67;34.69;40.33;;
42701;Laerm;28316;49.504;8.526;2023-05-10T07:07:39;37.74;34.31;40.13;;
42701;Laerm;28316;49.504;8.526;2023-05-10T07:10:06;37.96;34.69;40.18;;
42701;Laerm;28316;49.504;8.526;2023-05-10T07:12:33;38.00;35.04;40.13;;
42701;Laerm;28316;49.504;8.526;2023-05-10T07:14:59;38.16;35.04;40.23;;
42701;Laerm;28316;49.504;8.526;2023-05-10T07:17:25;38.25;35.94;40.71;;
42701;Laerm;28316;49.504;8.526;2023-05-10T07:19:50;38.47;35.94;40.89;;
42701;Laerm;28316;49.504;8.526;2023-05-10T07:22:16;38.65;36.20;40.62;;
42701;Laerm;28316;49.504;8.526;2023-05-10T07:24:44;38.82;36.45;40.89;;
42701;Laerm;28316;49.504;8.526;2023-05-10T07:27:10;38.98;36.45;40.62;;
42701;Laerm;28316;49.504;8.526;2023-05-10T07:29:36;39.19;36.45;40.98;;
42701;Laerm;28316;49.504;8.526;2023-05-10T07:32:02;39.29;37.12;41.06;;
42701;Laerm;28316;49.504;8.526;2023-05-10T07:34:28;39.38;37.32;40.98;;
42701;Laerm;28316;49.504;8.526;2023-05-10T07:36:57;39.56;37.52;41.75;;
42701;Laerm;28316;49.504;8.526;2023-05-10T07:39:23;39.81;37.88;41.38;;
42701;Laerm;28316;49.504;8.526;2023-05-10T07:41:50;39.68;37.32;43.19;;
42701;Laerm;28316;49.504;8.526;2023-05-10T07:44:16;39.77;37.52;41.30;;
42701;Laerm;28316;49.504;8.526;2023-05-10T07:46:44;39.81;38.02;41.38;;
42701;Laerm;28316;49.504;8.526;2023-05-10T07:49:10;39.75;37.32;41.46;;
42701;Laerm;28316;49.504;8.526;2023-05-10T07:51:35;39.85;37.52;41.46;;
42701;Laerm;28316;49.504;8.526;2023-05-10T07:54:01;40.10;38.21;41.61;;
42701;Laerm;28316;49.504;8.526;2023-05-10T07:56:30;40.17;38.37;42.03;;
42701;Laerm;28316;49.504;8.526;2023-05-10T07:58:58;40.35;38.67;41.75;;
42701;Laerm;28316;49.504;8.526;2023-05-10T08:01:24;40.24;38.52;41.75;;
42701;Laerm;28316;49.504;8.526;2023-05-10T08:03:50;40.37;38.81;41.89;;
42701;Laerm;28316;49.504;8.526;2023-05-10T08:06:20;40.23;38.47;41.75;;
42701;Laerm;28316;49.504;8.526;2023-05-10T08:08:47;40.14;38.21;41.53;;
42701;Laerm;28316;49.504;8.526;2023-05-10T08:11:16;40.09;38.37;42.76;;
42701;Laerm;28316;49.504;8.526;2023-05-10T08:13:43;40.23;38.21;45.04;;
42701;Laerm;28316;49.504;8.526;2023-05-10T08:16:09;40.15;38.37;41.68;;
42701;Laerm;28316;49.504;8.526;2023-05-10T08:18:35;40.30;38.05;41.82;;
42701;Laerm;28316;49.504;8.526;2023-05-10T08:21:01;40.24;38.37;41.89;;
42701;Laerm;28316;49.504;8.526;2023-05-10T08:23:26;40.41;38.95;41.68;;
42701;Laerm;28316;49.504;8.526;2023-05-10T08:25:52;40.55;38.81;41.89;;
42701;Laerm;28316;49.504;8.526;2023-05-10T08:28:18;40.57;38.81;41.82;;
42701;Laerm;28316;49.504;8.526;2023-05-10T08:30:43;40.73;38.95;41.96;;
42701;Laerm;28316;49.504;8.526;2023-05-10T08:33:09;40.77;39.21;42.16;;
42701;Laerm;28316;49.504;8.526;2023-05-10T08:35:35;40.66;39.21;42.03;;
42701;Laerm;28316;49.504;8.526;2023-05-10T08:38:01;40.77;38.95;42.16;;
42701;Laerm;28316;49.504;8.526;2023-05-10T08:40:27;40.87;39.21;42.03;;
42701;Laerm;28316;49.504;8.526;2023-05-10T08:43:04;40.88;39.34;42.16;;
42701;Laerm;28316;49.504;8.526;2023-05-10T08:45:35;40.92;39.08;42.16;;
42701;Laerm;28316;49.504;8.526;2023-05-10T08:48:06;40.82;38.95;42.29;;
42701;Laerm;28316;49.504;8.526;2023-05-10T08:50:37;40.74;39.21;42.03;;
42701;Laerm;28316;49.504;8.526;2023-05-10T08:53:11;40.64;39.21;41.94;;
42701;Laerm;28316;49.504;8.526;2023-05-10T08:55:38;40.44;38.52;41.75;;
42701;Laerm;28316;49.504;8.526;2023-05-10T08:58:08;40.30;38.52;41.68;;
42701;Laerm;28316;49.504;8.526;2023-05-10T09:00:34;40.37;38.52;41.82;;
42701;Laerm;28316;49.504;8.526;2023-05-10T09:03:03;40.37;38.67;41.68;;
42701;Laerm;28316;49.504;8.526;2023-05-10T09:05:29;40.57;39.08;42.29;;
42701;Laerm;28316;49.504;8.526;2023-05-10T09:07:54;40.55;39.08;42.09;;
42701;Laerm;28316;49.504;8.526;2023-05-10T09:10:21;40.66;38.67;42.13;;
42701;Laerm;28316;49.504;8.526;2023-05-10T09:12:48;40.60;39.08;42.03;;
42701;Laerm;28316;49.504;8.526;2023-05-10T09:15:17;40.68;38.81;42.16;;
42701;Laerm;28316;49.504;8.526;2023-05-10T09:17:46;40.65;39.21;41.89;;
42701;Laerm;28316;49.504;8.526;2023-05-10T09:20:12;40.54;38.95;41.89;;
42701;Laerm;28316;49.504;8.526;2023-05-10T09:22:38;40.55;38.81;41.89;;
42701;Laerm;28316;49.504;8.526;2023-05-10T09:25:13;40.48;38.81;41.96;;
42701;Laerm;28316;49.504;8.526;2023-05-10T09:27:43;40.45;38.81;42.16;;
42701;Laerm;28316;49.504;8.526;2023-05-10T09:30:14;40.48;38.95;41.82;;
42701;Laerm;28316;49.504;8.526;2023-05-10T09:32:44;40.54;38.95;42.03;;
42701;Laerm;28316;49.504;8.526;2023-05-10T09:35:16;40.73;39.08;41.89;;
42701;Laerm;28316;49.504;8.526;2023-05-10T09:37:44;40.89;39.08;43.19;;
42701;Laerm;28316;49.504;8.526;2023-05-10T09:40:23;41.00;39.21;42.29;;
42701;Laerm;28316;49.504;8.526;2023-05-10T09:43:00;41.05;39.57;42.82;;
42701;Laerm;28316;49.504;8.526;2023-05-10T09:45:29;40.93;39.46;43.81;;
42701;Laerm;28316;49.504;8.526;2023-05-10T09:47:56;40.98;39.34;42.88;;
42701;Laerm;28316;49.504;8.526;2023-05-10T09:50:23;41.09;39.58;42.69;;
42701;Laerm;28316;49.504;8.526;2023-05-10T09:53:00;40.88;38.95;42.13;;
42701;Laerm;28316;49.504;8.526;2023-05-10T09:55:43;40.60;38.67;42.09;;
42701;Laerm;28316;49.504;8.526;2023-05-10T09:58:10;40.20;38.05;46.23;;
42701;Laerm;28316;49.504;8.526;2023-05-10T10:00:42;39.09;33.44;67.84;;
42701;Laerm;28316;49.504;8.526;2023-05-10T10:03:16;38.40;32.35;65.15;;
42701;Laerm;28316;49.504;8.526;2023-05-10T10:05:44;38.58;32.93;65.76;;
42701;Laerm;28316;49.504;8.526;2023-05-10T10:08:12;60.78;30.89;97.02;;
42701;Laerm;28316;49.504;8.526;2023-05-10T10:10:39;40.73;38.37;62.86;;
42701;Laerm;28316;49.504;8.526;2023-05-10T10:13:10;40.70;38.95;62.56;;
42701;Laerm;28316;49.504;8.526;2023-05-10T10:15:36;40.71;39.34;50.70;;
42701;Laerm;28316;49.504;8.526;2023-05-10T10:18:03;40.16;36.91;48.43;;
42701;Laerm;28316;49.504;8.526;2023-05-10T10:20:29;38.25;31.68;41.61;;
42701;Laerm;28316;49.504;8.526;2023-05-10T10:22:55;37.83;28.67;52.89;;
42701;Laerm;28316;49.504;8.526;2023-05-10T10:25:22;37.55;29.92;47.44;;
42701;Laerm;28316;49.504;8.526;2023-05-10T10:30:48;36.69;5.00;39.46;;
42701;Laerm;28316;49.504;8.526;2023-05-10T10:36:00;39.11;36.91;40.80;;
42701;Laerm;28316;49.504;8.526;2023-05-10T10:38:57;38.86;33.90;40.33;;
42701;Laerm;28316;49.504;8.526;2023-05-10T10:41:36;38.92;36.69;40.43;;
42701;Laerm;28316;49.504;8.526;2023-05-10T10:52:26;38.77;36.77;40.43;;
42701;Laerm;28316;49.504;8.526;2023-05-10T10:55:05;36.98;23.90;40.13;;
42701;Laerm;28316;49.504;8.526;2023-05-10T10:57:42;35.99;5.00;53.49;;
42701;Laerm;28316;49.504;8.526;2023-05-10T11:00:27;38.73;32.35;42.93;;
42701;Laerm;28316;49.504;8.526;2023-05-10T11:05:37;42.03;40.43;44.07;;
42701;Laerm;28316;49.504;8.526;2023-05-10T11:08:31;41.98;40.53;48.13;;
42701;Laerm;28316;49.504;8.526;2023-05-10T11:13:31;41.77;40.23;45.04;;
42701;Laerm;28316;49.504;8.526;2023-05-10T11:15:59;41.75;39.70;44.58;;
42701;Laerm;28316;49.504;8.526;2023-05-10T11:18:37;41.76;40.23;43.24;;
42701;Laerm;28316;49.504;8.526;2023-05-10T11:21:03;42.22;40.27;61.01;;
42701;Laerm;28316;49.504;8.526;2023-05-10T11:23:33;41.76;40.13;43.72;;
42701;Laerm;28316;49.504;8.526;2023-05-10T11:26:13;42.04;39.70;55.93;;
42701;Laerm;28316;49.504;8.526;2023-05-10T11:28:47;41.47;39.58;46.18;;
42701;Laerm;28316;49.504;8.526;2023-05-10T11:31:18;41.44;38.52;49.64;;
42701;Laerm;28316;49.504;8.526;2023-05-10T11:33:46;47.88;33.44;83.54;;
42701;Laerm;28316;49.504;8.526;2023-05-10T11:38:46;42.73;39.81;58.35;;
42701;Laerm;28316;49.504;8.526;2023-05-10T11:41:13;42.56;39.34;59.37;;
42701;Laerm;28316;49.504;8.526;2023-05-10T11:43:39;41.55;39.21;53.21;;
42701;Laerm;28316;49.504;8.526;2023-05-10T11:46:11;41.37;39.46;45.14;;
42701;Laerm;28316;49.504;8.526;2023-05-10T11:48:39;41.58;39.21;52.13;;
42701;Laerm;28316;49.504;8.526;2023-05-10T11:51:07;41.55;39.34;49.44;;
42701;Laerm;28316;49.504;8.526;2023-05-10T11:53:33;41.40;39.46;48.18;;
42701;Laerm;28316;49.504;8.526;2023-05-10T11:56:12;41.31;38.81;43.68;;
42701;Laerm;28316;49.504;8.526;2023-05-10T11:58:39;41.59;38.81;51.36;;
42701;Laerm;28316;49.504;8.526;2023-05-10T12:01:07;41.42;39.57;47.50;;
42701;Laerm;28316;49.504;8.526;2023-05-10T12:03:35;41.90;39.34;60.00;;
42701;Laerm;28316;49.504;8.526;2023-05-10T12:06:02;41.28;39.34;43.24;;
42701;Laerm;28316;49.504;8.526;2023-05-10T12:08:29;41.40;39.34;44.47;;
42701;Laerm;28316;49.504;8.526;2023-05-10T12:11:09;41.34;39.70;43.90;;
42701;Laerm;28316;49.504;8.526;2023-05-10T12:13:43;41.50;39.46;44.65;;
42701;Laerm;28316;49.504;8.526;2023-05-10T12:16:23;41.90;39.81;56.80;;
42701;Laerm;28316;49.504;8.526;2023-05-10T12:18:51;41.71;39.92;43.99;;
42701;Laerm;28316;49.504;8.526;2023-05-10T12:21:17;41.84;40.13;48.42;;
42701;Laerm;28316;49.504;8.526;2023-05-10T12:23:46;41.86;40.13;49.66;;
42701;Laerm;28316;49.504;8.526;2023-05-10T12:26:12;41.68;39.92;45.33;;
42701;Laerm;28316;49.504;8.526;2023-05-10T12:28:39;41.82;39.34;51.20;;
42701;Laerm;28316;49.504;8.526;2023-05-10T12:31:08;41.60;39.81;45.75;;
42701;Laerm;28316;49.504;8.526;2023-05-10T12:33:44;41.49;39.46;43.54;;
42701;Laerm;28316;49.504;8.526;2023-05-10T12:36:13;41.50;39.81;45.80;;
42701;Laerm;28316;49.504;8.526;2023-05-10T12:41:12;41.76;39.46;55.67;;
42701;Laerm;28316;49.504;8.526;2023-05-10T12:43:39;41.16;39.08;45.11;;
42701;Laerm;28316;49.504;8.526;2023-05-10T12:46:09;41.28;38.81;54.40;;
42701;Laerm;28316;49.504;8.526;2023-05-10T12:48:39;41.00;38.95;43.54;;
42701;Laerm;28316;49.504;8.526;2023-05-10T12:51:06;41.38;38.37;52.77;;
42701;Laerm;28316;49.504;8.526;2023-05-10T12:53:35;40.88;38.37;43.14;;
42701;Laerm;28316;49.504;8.526;2023-05-10T12:56:01;40.95;38.67;49.25;;
42701;Laerm;28316;49.504;8.526;2023-05-10T12:58:27;40.84;38.67;45.77;;
42701;Laerm;28316;49.504;8.526;2023-05-10T13:00:53;40.85;38.95;44.15;;
42701;Laerm;28316;49.504;8.526;2023-05-10T13:03:19;41.68;38.52;59.54;;
42701;Laerm;28316;49.504;8.526;2023-05-10T13:05:44;41.31;38.67;55.64;;
42701;Laerm;28316;49.504;8.526;2023-05-10T13:08:10;41.28;39.08;50.91;;
42701;Laerm;28316;49.504;8.526;2023-05-10T13:10:36;41.61;39.08;55.59;;
42701;Laerm;28316;49.504;8.526;2023-05-10T13:13:02;41.51;39.35;50.56;;
42701;Laerm;28316;49.504;8.526;2023-05-10T13:15:28;41.31;38.95;44.31;;
42701;Laerm;28316;49.504;8.526;2023-05-10T13:17:54;41.12;38.37;43.86;;
42701;Laerm;28316;49.504;8.526;2023-05-10T13:20:20;41.08;38.67;45.89;;
42701;Laerm;28316;49.504;8.526;2023-05-10T13:22:46;41.04;38.67;49.27;;
42701;Laerm;28316;49.504;8.526;2023-05-10T13:25:12;40.93;38.67;45.91;;
42701;Laerm;28316;49.504;8.526;2023-05-10T13:27:41;41.00;38.52;48.84;;
42701;Laerm;28316;49.504;8.526;2023-05-10T13:30:08;40.99;37.88;47.44;;
42701;Laerm;28316;49.504;8.526;2023-05-10T13:32:35;40.95;38.95;42.98;;
42701;Laerm;28316;49.504;8.526;2023-05-10T13:35:01;40.78;38.05;45.94;;
42701;Laerm;28316;49.504;8.526;2023-05-10T13:37:29;40.91;37.88;48.51;;
42701;Laerm;28316;49.504;8.526;2023-05-10T13:39:56;40.85;38.52;49.17;;
42701;Laerm;28316;49.504;8.526;2023-05-10T13:42:24;40.69;38.05;44.54;;
42701;Laerm;28316;49.504;8.526;2023-05-10T13:44:50;40.62;38.05;44.11;;
42701;Laerm;28316;49.504;8.526;2023-05-10T13:47:16;41.17;38.67;49.94;;
42701;Laerm;28316;49.504;8.526;2023-05-10T13:49:42;40.86;38.37;47.14;;
42701;Laerm;28316;49.504;8.526;2023-05-10T13:52:08;40.92;37.52;48.74;;
42701;Laerm;28316;49.504;8.526;2023-05-10T13:54:36;41.22;37.88;58.30;;
42701;Laerm;28316;49.504;8.526;2023-05-10T13:57:03;40.71;38.37;45.45;;
42701;Laerm;28316;49.504;8.526;2023-05-10T13:59:29;40.55;38.21;42.71;;
42701;Laerm;28316;49.504;8.526;2023-05-10T14:01:58;40.73;38.21;46.93;;
42701;Laerm;28316;49.504;8.526;2023-05-10T14:04:24;40.50;36.20;48.45;;
42701;Laerm;28316;49.504;8.526;2023-05-10T14:06:50;40.47;37.70;48.23;;
42701;Laerm;28316;49.504;8.526;2023-05-10T14:09:16;40.54;37.88;47.55;;
42701;Laerm;28316;49.504;8.526;2023-05-10T14:11:42;40.67;37.70;54.92;;
42701;Laerm;28316;49.504;8.526;2023-05-10T14:14:12;41.40;37.88;58.44;;
42701;Laerm;28316;49.504;8.526;2023-05-10T14:16:42;40.40;37.70;50.85;;
42701;Laerm;28316;49.504;8.526;2023-05-10T14:19:09;40.38;36.45;44.35;;
42701;Laerm;28316;49.504;8.526;2023-05-10T14:21:35;41.11;37.52;57.16;;
42701;Laerm;28316;49.504;8.526;2023-05-10T14:24:01;40.56;37.52;53.72;;
42701;Laerm;28316;49.504;8.526;2023-05-10T14:26:27;40.31;37.70;44.19;;
42701;Laerm;28316;49.504;8.526;2023-05-10T14:28:53;40.55;37.70;47.81;;
42701;Laerm;28316;49.504;8.526;2023-05-10T14:31:19;40.48;37.70;55.73;;
42701;Laerm;28316;49.504;8.526;2023-05-10T14:33:48;41.31;37.88;60.01;;
42701;Laerm;28316;49.504;8.526;2023-05-10T14:36:14;40.17;36.91;45.14;;
42701;Laerm;28316;49.504;8.526;2023-05-10T14:38:40;40.68;36.69;54.65;;
42701;Laerm;28316;49.504;8.526;2023-05-10T14:41:07;40.26;37.52;48.31;;